createdAt,value
2017-11-23T00:00:30.506Z,85.62
2017-11-23T00:01:30.520Z,85.91
2017-11-23T00:02:30.536Z,86.00
2017-11-23T00:03:30.550Z,85.81
2017-11-23T00:04:30.561Z,85.91
2017-11-23T00:05:30.595Z,85.53
2017-11-23T00:06:30.595Z,85.53
2017-11-23T00:07:30.608Z,85.62
2017-11-23T00:08:30.623Z,85.53
2017-11-23T00:09:30.639Z,85.81
2017-11-23T00:10:30.653Z,85.53
2017-11-23T00:11:30.670Z,85.43
2017-11-23T00:12:30.684Z,85.53
2017-11-23T00:13:30.701Z,85.62
2017-11-23T00:14:30.718Z,85.43
2017-11-23T00:15:30.728Z,85.62
2017-11-23T00:16:30.742Z,85.62
2017-11-23T00:17:30.759Z,85.53
2017-11-23T00:18:30.776Z,85.62
2017-11-23T00:19:30.791Z,85.34
2017-11-23T00:20:30.814Z,85.53
2017-11-23T00:21:30.822Z,85.34
2017-11-23T00:22:30.844Z,85.53
2017-11-23T00:23:30.853Z,85.91
2017-11-23T00:24:30.863Z,85.81
2017-11-23T00:25:30.881Z,85.91
2017-11-23T00:26:30.899Z,85.72
2017-11-23T00:27:30.911Z,85.96
2017-11-23T00:28:30.923Z,86.95
2017-11-23T00:29:30.944Z,87.24
2017-11-23T00:30:30.956Z,86.76
2017-11-23T00:31:30.970Z,86.47
2017-11-23T00:32:30.982Z,86.47
2017-11-23T00:33:31.001Z,86.29
2017-11-23T00:34:31.015Z,86.38
2017-11-23T00:35:31.029Z,85.81
2017-11-23T00:36:31.045Z,85.62
2017-11-23T00:37:31.059Z,85.62
2017-11-23T00:38:31.075Z,85.24
2017-11-23T00:39:31.090Z,85.43
2017-11-23T00:40:31.106Z,85.24
2017-11-23T00:41:31.119Z,85.10
2017-11-23T00:42:31.136Z,84.58
2017-11-23T00:43:31.154Z,84.77
2017-11-23T00:44:31.166Z,84.81
2017-11-23T00:45:31.179Z,84.81
2017-11-23T00:46:31.195Z,84.52
2017-11-23T00:47:31.212Z,84.62
2017-11-23T00:48:31.224Z,84.24
2017-11-23T00:49:31.250Z,84.05
2017-11-23T00:50:31.260Z,83.67
2017-11-23T00:51:31.273Z,83.76
2017-11-23T00:52:31.295Z,83.67
2017-11-23T00:53:31.297Z,83.29
2017-11-23T00:54:31.318Z,83.95
2017-11-23T00:55:31.332Z,83.95
2017-11-23T00:56:31.344Z,83.95
2017-11-23T00:57:31.361Z,84.20
2017-11-23T00:58:31.375Z,84.20
2017-11-23T00:59:31.391Z,84.62
2017-11-23T01:00:31.404Z,84.20
2017-11-23T01:01:31.419Z,84.10
2017-11-23T01:02:31.436Z,84.20
2017-11-23T01:03:31.454Z,83.53
2017-11-23T01:04:31.468Z,84.05
2017-11-23T01:05:31.484Z,84.20
2017-11-23T01:06:31.496Z,84.24
2017-11-23T01:07:31.511Z,83.86
2017-11-23T01:08:31.526Z,84.01
2017-11-23T01:09:31.541Z,84.20
2017-11-23T01:10:31.558Z,83.86
2017-11-23T01:11:31.573Z,83.76
2017-11-23T01:12:31.588Z,83.10
2017-11-23T01:13:31.603Z,82.71
2017-11-23T01:14:31.618Z,83.00
2017-11-23T01:15:31.633Z,82.71
2017-11-23T01:16:31.656Z,82.71
2017-11-23T01:17:31.665Z,82.91
2017-11-23T01:18:31.677Z,83.19
2017-11-23T01:19:31.692Z,83.10
2017-11-23T01:20:31.707Z,83.29
2017-11-23T01:21:31.724Z,83.10
2017-11-23T01:22:31.741Z,82.62
2017-11-23T01:23:31.754Z,82.71
2017-11-23T01:24:31.767Z,83.19
2017-11-23T01:25:31.782Z,82.81
2017-11-23T01:26:31.800Z,82.71
2017-11-23T01:27:31.817Z,82.71
2017-11-23T01:28:31.828Z,82.71
2017-11-23T01:29:31.852Z,82.43
2017-11-23T01:30:31.864Z,82.62
2017-11-23T01:31:31.873Z,82.62
2017-11-23T01:32:31.890Z,82.24
2017-11-23T01:33:31.906Z,82.43
2017-11-23T01:34:31.923Z,82.24
2017-11-23T01:35:31.936Z,82.05
2017-11-23T01:36:31.949Z,82.15
2017-11-23T01:37:31.967Z,82.09
2017-11-23T01:38:31.981Z,81.81
2017-11-23T01:39:31.997Z,81.71
2017-11-23T01:40:32.018Z,82.15
2017-11-23T01:41:32.028Z,81.77
2017-11-23T01:42:32.044Z,82.43
2017-11-23T01:43:32.058Z,81.77
2017-11-23T01:44:32.071Z,82.05
2017-11-23T01:45:32.090Z,82.19
2017-11-23T01:46:32.103Z,81.58
2017-11-23T01:47:32.121Z,81.77
2017-11-23T01:48:32.137Z,81.67
2017-11-23T01:49:32.150Z,81.58
2017-11-23T01:50:32.166Z,81.81
2017-11-23T01:51:32.183Z,81.33
2017-11-23T01:52:32.196Z,81.52
2017-11-23T01:53:32.211Z,81.71
2017-11-23T01:54:32.236Z,81.43
2017-11-23T01:55:32.243Z,81.33
2017-11-23T01:56:32.256Z,81.01
2017-11-23T01:57:33.267Z,81.67
2017-11-23T01:58:32.285Z,81.48
2017-11-23T01:59:32.301Z,81.77
2017-11-23T02:00:32.320Z,81.33
2017-11-23T02:01:32.333Z,81.43
2017-11-23T02:02:32.351Z,81.77
2017-11-23T02:03:32.367Z,81.38
2017-11-23T02:04:32.383Z,81.29
2017-11-23T02:05:32.393Z,81.62
2017-11-23T02:06:32.412Z,81.38
2017-11-23T02:07:32.431Z,81.43
2017-11-23T02:08:32.440Z,81.43
2017-11-23T02:09:32.457Z,81.77
2017-11-23T02:10:32.474Z,81.58
2017-11-23T02:11:32.491Z,81.38
2017-11-23T02:12:32.506Z,81.62
2017-11-23T02:13:32.524Z,81.24
2017-11-23T02:14:32.536Z,81.62
2017-11-23T02:15:32.548Z,81.05
2017-11-23T02:16:32.563Z,80.66
2017-11-23T02:17:32.578Z,80.38
2017-11-23T02:18:32.594Z,80.38
2017-11-23T02:19:32.612Z,80.38
2017-11-23T02:20:32.625Z,80.00
2017-11-23T02:21:32.666Z,80.47
2017-11-23T02:22:32.658Z,79.72
2017-11-23T02:23:32.671Z,80.00
2017-11-23T02:24:32.693Z,79.52
2017-11-23T02:25:32.702Z,79.33
2017-11-23T02:26:32.721Z,79.91
2017-11-23T02:27:32.735Z,80.10
2017-11-23T02:28:32.753Z,79.62
2017-11-23T02:29:32.764Z,79.91
2017-11-23T02:30:32.778Z,79.81
2017-11-23T02:31:32.802Z,80.00
2017-11-23T02:32:32.823Z,79.91
2017-11-23T02:33:32.825Z,79.91
2017-11-23T02:34:32.843Z,80.10
2017-11-23T02:35:32.857Z,80.10
2017-11-23T02:36:32.887Z,80.57
2017-11-23T02:37:32.887Z,79.91
2017-11-23T02:38:32.902Z,79.81
2017-11-23T02:39:32.920Z,80.00
2017-11-23T02:40:32.934Z,80.10
2017-11-23T02:41:32.946Z,80.10
2017-11-23T02:42:32.966Z,80.29
2017-11-23T02:43:32.978Z,80.29
2017-11-23T02:44:33.006Z,80.10
2017-11-23T02:45:33.012Z,80.57
2017-11-23T02:46:33.026Z,80.19
2017-11-23T02:47:33.042Z,80.29
2017-11-23T02:48:33.059Z,80.19
2017-11-23T02:49:33.072Z,80.47
2017-11-23T02:50:33.095Z,80.19
2017-11-23T02:51:33.108Z,79.81
2017-11-23T02:52:33.120Z,79.72
2017-11-23T02:53:33.135Z,80.38
2017-11-23T02:54:33.150Z,80.29
2017-11-23T02:55:33.165Z,80.29
2017-11-23T02:56:33.178Z,80.47
2017-11-23T02:57:33.196Z,80.29
2017-11-23T02:58:33.211Z,80.29
2017-11-23T02:59:33.225Z,80.10
2017-11-23T03:00:33.241Z,80.10
2017-11-23T03:01:33.256Z,80.19
2017-11-23T03:02:33.272Z,80.10
2017-11-23T03:03:33.292Z,81.05
2017-11-23T03:04:33.302Z,80.38
2017-11-23T03:05:33.317Z,79.72
2017-11-23T03:06:33.335Z,79.91
2017-11-23T03:07:33.350Z,80.00
2017-11-23T03:08:33.508Z,79.33
2017-11-23T03:09:33.379Z,79.91
2017-11-23T03:10:33.395Z,79.81
2017-11-23T03:11:33.413Z,79.81
2017-11-23T03:12:33.426Z,80.00
2017-11-23T03:13:33.499Z,79.52
2017-11-23T03:14:33.459Z,78.99
2017-11-23T03:15:33.473Z,79.14
2017-11-23T03:16:33.487Z,79.43
2017-11-23T03:17:33.504Z,78.96
2017-11-23T03:18:33.520Z,79.24
2017-11-23T03:19:33.545Z,79.33
2017-11-23T03:20:33.550Z,79.14
2017-11-23T03:21:33.566Z,79.14
2017-11-23T03:22:33.583Z,79.33
2017-11-23T03:23:33.596Z,79.14
2017-11-23T03:24:33.612Z,79.14
2017-11-23T03:25:33.634Z,79.33
2017-11-23T03:26:33.642Z,79.33
2017-11-23T03:27:33.661Z,79.33
2017-11-23T03:28:33.675Z,79.14
2017-11-23T03:29:33.687Z,78.86
2017-11-23T03:30:33.714Z,78.86
2017-11-23T03:31:33.719Z,78.48
2017-11-23T03:32:33.738Z,78.77
2017-11-23T03:33:33.768Z,78.67
2017-11-23T03:34:33.765Z,78.77
2017-11-23T03:35:33.783Z,79.33
2017-11-23T03:36:33.809Z,78.86
2017-11-23T03:37:33.813Z,79.14
2017-11-23T03:38:33.829Z,78.96
2017-11-23T03:39:33.847Z,79.33
2017-11-23T03:40:33.859Z,78.57
2017-11-23T03:41:33.874Z,78.77
2017-11-23T03:42:33.894Z,78.77
2017-11-23T03:43:33.908Z,78.77
2017-11-23T03:44:33.925Z,78.77
2017-11-23T03:45:33.939Z,79.05
2017-11-23T03:46:33.954Z,79.43
2017-11-23T03:47:33.968Z,79.05
2017-11-23T03:48:33.985Z,79.05
2017-11-23T03:49:34.001Z,79.05
2017-11-23T03:50:34.026Z,79.14
2017-11-23T03:51:34.031Z,79.24
2017-11-23T03:52:34.047Z,79.14
2017-11-23T03:53:34.063Z,79.05
2017-11-23T03:54:34.079Z,79.33
2017-11-23T03:55:34.097Z,79.62
2017-11-23T03:56:34.120Z,79.62
2017-11-23T03:57:34.124Z,79.81
2017-11-23T03:58:34.135Z,79.91
2017-11-23T03:59:34.155Z,79.72
2017-11-23T04:00:34.171Z,79.14
2017-11-23T04:01:34.188Z,79.24
2017-11-23T04:02:34.200Z,79.43
2017-11-23T04:03:34.217Z,78.77
2017-11-23T04:04:34.234Z,78.52
2017-11-23T04:05:34.247Z,78.77
2017-11-23T04:06:34.266Z,78.99
2017-11-23T04:07:34.283Z,78.77
2017-11-23T04:08:34.295Z,78.67
2017-11-23T04:09:34.310Z,79.33
2017-11-23T04:10:34.325Z,79.72
2017-11-23T04:11:34.343Z,78.96
2017-11-23T04:12:34.358Z,79.24
2017-11-23T04:13:34.368Z,79.24
2017-11-23T04:14:34.384Z,79.38
2017-11-23T04:15:34.410Z,79.14
2017-11-23T04:16:34.427Z,78.96
2017-11-23T04:17:34.437Z,79.91
2017-11-23T04:18:34.449Z,79.43
2017-11-23T04:19:34.462Z,79.62
2017-11-23T04:20:34.479Z,79.81
2017-11-23T04:21:34.502Z,79.43
2017-11-23T04:22:34.509Z,79.24
2017-11-23T04:23:34.524Z,79.14
2017-11-23T04:24:34.548Z,78.71
2017-11-23T04:25:34.555Z,78.77
2017-11-23T04:26:34.573Z,78.77
2017-11-23T04:27:34.585Z,78.71
2017-11-23T04:28:34.609Z,79.14
2017-11-23T04:29:34.621Z,78.86
2017-11-23T04:30:34.632Z,78.99
2017-11-23T04:31:34.647Z,79.09
2017-11-23T04:32:34.664Z,78.86
2017-11-23T04:33:34.680Z,78.71
2017-11-23T04:34:34.698Z,79.33
2017-11-23T04:35:34.713Z,79.33
2017-11-23T04:36:34.725Z,80.29
2017-11-23T04:37:34.748Z,79.62
2017-11-23T04:38:34.767Z,79.57
2017-11-23T04:39:34.777Z,79.09
2017-11-23T04:40:34.915Z,78.80
2017-11-23T04:41:34.814Z,78.71
2017-11-23T04:42:34.832Z,78.04
2017-11-23T04:43:34.845Z,78.99
2017-11-23T04:44:34.847Z,78.42
2017-11-23T04:45:34.864Z,78.71
2017-11-23T04:46:34.882Z,78.42
2017-11-23T04:47:34.953Z,78.42
2017-11-23T04:48:34.910Z,78.33
2017-11-23T04:49:34.923Z,78.71
2017-11-23T04:50:34.942Z,78.71
2017-11-23T04:51:34.956Z,79.38
2017-11-23T04:52:34.971Z,79.28
2017-11-23T04:53:34.987Z,79.47
2017-11-23T04:54:35.004Z,78.80
2017-11-23T04:55:35.019Z,78.23
2017-11-23T04:56:35.039Z,78.23
2017-11-23T04:57:35.050Z,78.23
2017-11-23T04:58:35.067Z,78.04
2017-11-23T04:59:35.083Z,77.85
2017-11-23T05:00:35.102Z,78.14
2017-11-23T05:01:35.121Z,78.90
2017-11-23T05:02:35.128Z,78.52
2017-11-23T05:03:35.140Z,78.23
2017-11-23T05:04:35.159Z,78.14
2017-11-23T05:05:35.175Z,78.23
2017-11-23T05:06:35.189Z,78.14
2017-11-23T05:07:35.208Z,78.61
2017-11-23T05:08:35.233Z,78.23
2017-11-23T05:09:35.235Z,78.14
2017-11-23T05:10:35.252Z,78.56
2017-11-23T05:11:35.270Z,78.14
2017-11-23T05:12:35.292Z,78.42
2017-11-23T05:13:35.301Z,77.98
2017-11-23T05:14:35.317Z,78.52
2017-11-23T05:15:35.335Z,78.23
2017-11-23T05:16:35.344Z,78.04
2017-11-23T05:17:35.361Z,78.14
2017-11-23T05:18:35.377Z,78.08
2017-11-23T05:19:35.395Z,78.46
2017-11-23T05:20:35.419Z,78.17
2017-11-23T05:21:35.427Z,78.17
2017-11-23T05:22:35.446Z,77.80
2017-11-23T05:23:35.457Z,78.17
2017-11-23T05:24:35.473Z,78.46
2017-11-23T05:25:35.489Z,78.14
2017-11-23T05:26:35.504Z,78.90
2017-11-23T05:27:35.519Z,78.90
2017-11-23T05:28:35.535Z,78.71
2017-11-23T05:29:35.548Z,78.17
2017-11-23T05:30:35.567Z,78.08
2017-11-23T05:31:35.583Z,78.23
2017-11-23T05:32:35.600Z,78.65
2017-11-23T05:33:35.614Z,77.98
2017-11-23T05:34:35.630Z,78.14
2017-11-23T05:35:35.643Z,78.23
2017-11-23T05:36:35.660Z,78.71
2017-11-23T05:37:35.676Z,79.03
2017-11-23T05:38:35.693Z,78.71
2017-11-23T05:39:35.708Z,78.52
2017-11-23T05:40:35.722Z,78.27
2017-11-23T05:41:35.739Z,78.08
2017-11-23T05:42:35.754Z,78.37
2017-11-23T05:43:35.775Z,78.42
2017-11-23T05:44:35.791Z,78.14
2017-11-23T05:45:35.811Z,78.65
2017-11-23T05:46:35.819Z,78.37
2017-11-23T05:47:35.834Z,78.17
2017-11-23T05:48:35.849Z,78.94
2017-11-23T05:49:35.872Z,78.17
2017-11-23T05:50:35.883Z,78.46
2017-11-23T05:51:35.899Z,77.98
2017-11-23T05:52:35.914Z,79.03
2017-11-23T05:53:35.935Z,79.32
2017-11-23T05:54:35.945Z,78.75
2017-11-23T05:55:35.964Z,78.90
2017-11-23T05:56:35.980Z,78.17
2017-11-23T05:57:35.999Z,78.56
2017-11-23T05:58:36.010Z,78.17
2017-11-23T05:59:36.024Z,78.90
2017-11-23T06:00:36.042Z,78.65
2017-11-23T06:01:36.064Z,78.37
2017-11-23T06:02:36.077Z,78.27
2017-11-23T06:03:36.096Z,78.56
2017-11-23T06:04:36.109Z,78.37
2017-11-23T06:05:36.124Z,78.94
2017-11-23T06:06:36.139Z,78.27
2017-11-23T06:07:36.151Z,78.37
2017-11-23T06:08:36.176Z,78.46
2017-11-23T06:09:36.182Z,78.85
2017-11-23T06:10:36.198Z,78.80
2017-11-23T06:11:36.215Z,79.09
2017-11-23T06:12:36.232Z,79.22
2017-11-23T06:13:36.247Z,78.85
2017-11-23T06:14:36.266Z,78.80
2017-11-23T06:15:36.290Z,79.28
2017-11-23T06:16:36.291Z,79.09
2017-11-23T06:17:36.321Z,79.41
2017-11-23T06:18:36.326Z,78.52
2017-11-23T06:19:36.341Z,79.28
2017-11-23T06:20:36.358Z,79.66
2017-11-23T06:21:36.373Z,80.04
2017-11-23T06:22:36.388Z,79.85
2017-11-23T06:23:36.405Z,79.75
2017-11-23T06:24:36.419Z,79.41
2017-11-23T06:25:36.436Z,79.60
2017-11-23T06:26:36.453Z,79.03
2017-11-23T06:27:36.469Z,79.41
2017-11-23T06:28:36.493Z,79.38
2017-11-23T06:29:36.502Z,80.23
2017-11-23T06:30:36.521Z,80.42
2017-11-23T06:31:36.533Z,80.99
2017-11-23T06:32:36.550Z,80.42
2017-11-23T06:33:36.562Z,80.42
2017-11-23T06:34:36.579Z,80.13
2017-11-23T06:35:36.596Z,80.71
2017-11-23T06:36:36.614Z,80.13
2017-11-23T06:37:36.630Z,80.27
2017-11-23T06:38:36.644Z,80.08
2017-11-23T06:39:36.659Z,79.60
2017-11-23T06:40:36.675Z,79.22
2017-11-23T06:41:36.687Z,79.22
2017-11-23T06:42:36.707Z,79.85
2017-11-23T06:43:36.724Z,79.75
2017-11-23T06:44:36.735Z,79.80
2017-11-23T06:45:36.752Z,80.27
2017-11-23T06:46:36.767Z,79.80
2017-11-23T06:47:36.789Z,79.80
2017-11-23T06:48:36.801Z,79.70
2017-11-23T06:49:36.815Z,79.89
2017-11-23T06:50:36.839Z,79.60
2017-11-23T06:51:36.858Z,79.51
2017-11-23T06:52:36.864Z,79.22
2017-11-23T06:53:36.880Z,79.32
2017-11-23T06:54:36.898Z,79.03
2017-11-23T06:55:36.915Z,78.85
2017-11-23T06:56:36.926Z,80.18
2017-11-23T06:57:36.941Z,79.99
2017-11-23T06:58:36.959Z,79.32
2017-11-23T06:59:36.975Z,79.51
2017-11-23T07:00:36.992Z,78.85
2017-11-23T07:01:37.005Z,79.32
2017-11-23T07:02:37.027Z,80.18
2017-11-23T07:03:37.043Z,79.99
2017-11-23T07:04:37.053Z,79.32
2017-11-23T07:05:37.069Z,79.03
2017-11-23T07:06:37.095Z,79.03
2017-11-23T07:07:37.101Z,79.22
2017-11-23T07:08:37.118Z,79.22
2017-11-23T07:09:37.131Z,79.32
2017-11-23T07:10:37.148Z,79.70
2017-11-23T07:11:37.169Z,79.89
2017-11-23T07:12:37.205Z,80.36
2017-11-23T07:13:37.193Z,79.99
2017-11-23T07:14:37.223Z,79.99
2017-11-23T07:15:37.229Z,80.18
2017-11-23T07:16:37.245Z,80.18
2017-11-23T07:17:37.259Z,79.89
2017-11-23T07:18:37.284Z,80.08
2017-11-23T07:19:37.304Z,79.89
2017-11-23T07:20:37.307Z,79.51
2017-11-23T07:21:37.323Z,79.22
2017-11-23T07:22:37.339Z,79.41
2017-11-23T07:23:37.355Z,79.80
2017-11-23T07:24:37.372Z,80.55
2017-11-23T07:25:37.389Z,80.36
2017-11-23T07:26:37.405Z,79.89
2017-11-23T07:27:37.419Z,79.89
2017-11-23T07:28:37.439Z,80.27
2017-11-23T07:29:37.454Z,80.18
2017-11-23T07:30:37.473Z,79.99
2017-11-23T07:31:37.491Z,80.08
2017-11-23T07:32:37.506Z,79.99
2017-11-23T07:33:37.514Z,79.99
2017-11-23T07:34:37.535Z,79.99
2017-11-23T07:35:37.550Z,79.99
2017-11-23T07:36:37.567Z,79.99
2017-11-23T07:37:37.585Z,80.08
2017-11-23T07:38:37.598Z,79.64
2017-11-23T07:39:37.612Z,79.46
2017-11-23T07:40:37.628Z,79.64
2017-11-23T07:41:37.644Z,79.27
2017-11-23T07:42:37.665Z,79.27
2017-11-23T07:43:37.680Z,79.55
2017-11-23T07:44:37.692Z,79.55
2017-11-23T07:45:37.708Z,79.17
2017-11-23T07:46:37.726Z,79.64
2017-11-23T07:47:37.751Z,79.46
2017-11-23T07:48:37.757Z,79.17
2017-11-23T07:49:37.778Z,78.98
2017-11-23T07:50:37.790Z,78.78
2017-11-23T07:51:37.807Z,79.17
2017-11-23T07:52:37.824Z,79.27
2017-11-23T07:53:37.845Z,78.78
2017-11-23T07:54:37.855Z,79.27
2017-11-23T07:55:37.884Z,79.36
2017-11-23T07:56:37.895Z,79.07
2017-11-23T07:57:37.906Z,80.41
2017-11-23T07:58:37.924Z,79.46
2017-11-23T07:59:37.939Z,80.02
2017-11-23T08:00:37.960Z,79.55
2017-11-23T08:01:37.975Z,79.46
2017-11-23T08:02:37.987Z,78.88
2017-11-23T08:03:38.006Z,79.36
2017-11-23T08:04:38.021Z,79.46
2017-11-23T08:05:38.032Z,79.46
2017-11-23T08:06:38.059Z,79.36
2017-11-23T08:07:38.067Z,78.69
2017-11-23T08:08:38.082Z,79.07
2017-11-23T08:09:38.097Z,79.46
2017-11-23T08:10:38.114Z,79.55
2017-11-23T08:11:38.134Z,78.59
2017-11-23T08:12:38.149Z,78.69
2017-11-23T08:13:38.167Z,78.98
2017-11-23T08:14:38.180Z,79.07
2017-11-23T08:15:38.202Z,78.83
2017-11-23T08:16:38.221Z,78.83
2017-11-23T08:17:38.231Z,78.92
2017-11-23T08:18:38.247Z,78.44
2017-11-23T08:19:38.263Z,78.06
2017-11-23T08:20:38.278Z,77.97
2017-11-23T08:21:38.296Z,78.44
2017-11-23T08:22:38.313Z,78.64
2017-11-23T08:23:38.331Z,78.16
2017-11-23T08:24:38.354Z,78.25
2017-11-23T08:25:38.361Z,78.44
2017-11-23T08:26:38.384Z,78.44
2017-11-23T08:27:38.399Z,78.06
2017-11-23T08:28:38.413Z,77.30
2017-11-23T08:29:38.427Z,77.69
2017-11-23T08:30:38.444Z,77.87
2017-11-23T08:31:38.461Z,77.69
2017-11-23T08:32:38.479Z,77.78
2017-11-23T08:33:38.493Z,77.49
2017-11-23T08:34:38.509Z,77.69
2017-11-23T08:35:38.527Z,77.30
2017-11-23T08:36:38.543Z,77.87
2017-11-23T08:37:38.562Z,77.87
2017-11-23T08:38:38.580Z,77.91
2017-11-23T08:39:38.592Z,77.72
2017-11-23T08:40:38.614Z,77.34
2017-11-23T08:41:38.632Z,77.78
2017-11-23T08:42:38.643Z,77.72
2017-11-23T08:43:38.661Z,78.35
2017-11-23T08:44:38.679Z,78.06
2017-11-23T08:45:38.694Z,77.97
2017-11-23T08:46:38.713Z,78.16
2017-11-23T08:47:38.728Z,78.10
2017-11-23T08:48:38.746Z,77.78
2017-11-23T08:49:38.764Z,77.69
2017-11-23T08:50:38.775Z,77.34
2017-11-23T08:51:38.800Z,77.34
2017-11-23T08:52:38.810Z,77.44
2017-11-23T08:53:38.828Z,76.77
2017-11-23T08:54:38.844Z,77.44
2017-11-23T08:55:38.873Z,77.62
2017-11-23T08:56:38.875Z,77.53
2017-11-23T08:57:38.895Z,77.53
2017-11-23T08:58:38.910Z,77.44
2017-11-23T08:59:38.927Z,77.25
2017-11-23T09:00:38.953Z,76.86
2017-11-23T09:01:38.961Z,77.34
2017-11-23T09:02:38.977Z,77.25
2017-11-23T09:03:38.997Z,77.34
2017-11-23T09:04:39.009Z,77.44
2017-11-23T09:05:39.027Z,76.67
2017-11-23T09:06:39.042Z,77.06
2017-11-23T09:07:39.059Z,77.44
2017-11-23T09:08:39.078Z,77.25
2017-11-23T09:09:39.094Z,76.67
2017-11-23T09:10:39.108Z,76.20
2017-11-23T09:11:39.127Z,76.29
2017-11-23T09:12:39.151Z,76.10
2017-11-23T09:13:39.160Z,76.67
2017-11-23T09:14:39.180Z,76.29
2017-11-23T09:15:39.193Z,76.48
2017-11-23T09:16:39.213Z,75.62
2017-11-23T09:17:39.228Z,76.77
2017-11-23T09:18:39.246Z,76.86
2017-11-23T09:19:39.261Z,76.20
2017-11-23T09:20:39.280Z,76.67
2017-11-23T09:21:39.302Z,75.91
2017-11-23T09:22:39.321Z,76.20
2017-11-23T09:23:39.332Z,76.23
2017-11-23T09:24:39.344Z,76.39
2017-11-23T09:25:39.365Z,76.20
2017-11-23T09:26:39.381Z,75.91
2017-11-23T09:27:39.398Z,76.01
2017-11-23T09:28:39.413Z,76.20
2017-11-23T09:29:39.430Z,76.04
2017-11-23T09:30:39.448Z,76.04
2017-11-23T09:31:39.466Z,75.76
2017-11-23T09:32:39.481Z,75.72
2017-11-23T09:33:39.502Z,76.33
2017-11-23T09:34:39.515Z,76.04
2017-11-23T09:35:39.534Z,75.95
2017-11-23T09:36:39.547Z,76.01
2017-11-23T09:37:39.565Z,76.01
2017-11-23T09:38:39.591Z,75.85
2017-11-23T09:39:39.603Z,75.47
2017-11-23T09:40:39.617Z,75.66
2017-11-23T09:41:39.637Z,75.76
2017-11-23T09:42:39.651Z,75.66
2017-11-23T09:43:39.671Z,75.76
2017-11-23T09:44:39.688Z,75.37
2017-11-23T09:45:39.707Z,75.66
2017-11-23T09:46:39.719Z,75.57
2017-11-23T09:47:39.746Z,74.71
2017-11-23T09:48:39.752Z,74.80
2017-11-23T09:49:39.770Z,75.47
2017-11-23T09:50:39.789Z,74.90
2017-11-23T09:51:39.807Z,74.80
2017-11-23T09:52:39.822Z,75.09
2017-11-23T09:53:39.837Z,74.71
2017-11-23T09:54:39.859Z,74.90
2017-11-23T09:55:39.876Z,74.13
2017-11-23T09:56:39.894Z,74.80
2017-11-23T09:57:39.928Z,74.32
2017-11-23T09:58:39.927Z,75.28
2017-11-23T09:59:39.944Z,74.42
2017-11-23T10:00:39.961Z,74.13
2017-11-23T10:01:39.977Z,74.99
2017-11-23T10:02:39.996Z,74.42
2017-11-23T10:03:40.012Z,74.32
2017-11-23T10:04:40.034Z,74.90
2017-11-23T10:05:40.046Z,74.71
2017-11-23T10:06:40.060Z,74.80
2017-11-23T10:07:40.747Z,74.42
2017-11-23T10:08:40.099Z,74.23
2017-11-23T10:09:40.117Z,74.80
2017-11-23T10:10:40.135Z,74.99
2017-11-23T10:11:40.150Z,73.98
2017-11-23T10:12:40.166Z,73.85
2017-11-23T10:13:40.184Z,74.74
2017-11-23T10:14:40.203Z,74.17
2017-11-23T10:15:40.218Z,73.88
2017-11-23T10:16:40.235Z,73.79
2017-11-23T10:17:40.270Z,73.69
2017-11-23T10:18:40.270Z,72.74
2017-11-23T10:19:40.289Z,73.12
2017-11-23T10:20:40.336Z,73.03
2017-11-23T10:21:40.323Z,73.03
2017-11-23T10:22:40.339Z,73.25
2017-11-23T10:23:40.358Z,72.68
2017-11-23T10:24:40.376Z,72.58
2017-11-23T10:25:40.390Z,72.55
2017-11-23T10:26:40.409Z,72.49
2017-11-23T10:27:40.435Z,73.12
2017-11-23T10:28:40.443Z,73.03
2017-11-23T10:29:40.471Z,72.97
2017-11-23T10:30:40.478Z,72.97
2017-11-23T10:31:40.497Z,72.87
2017-11-23T10:32:40.521Z,71.72
2017-11-23T10:33:40.531Z,71.44
2017-11-23T10:34:40.549Z,71.28
2017-11-23T10:35:40.570Z,71.53
2017-11-23T10:36:40.585Z,71.34
2017-11-23T10:37:40.606Z,70.96
2017-11-23T10:38:40.623Z,71.47
2017-11-23T10:39:40.639Z,71.00
2017-11-23T10:40:40.655Z,70.52
2017-11-23T10:41:40.672Z,70.33
2017-11-23T10:42:40.691Z,71.19
2017-11-23T10:43:40.717Z,70.52
2017-11-23T10:44:40.725Z,70.42
2017-11-23T10:45:40.750Z,70.61
2017-11-23T10:46:40.763Z,70.81
2017-11-23T10:47:40.780Z,71.09
2017-11-23T10:48:40.796Z,70.46
2017-11-23T10:49:40.816Z,69.60
2017-11-23T10:50:40.833Z,70.33
2017-11-23T10:51:40.872Z,70.23
2017-11-23T10:52:40.870Z,70.04
2017-11-23T10:53:40.894Z,70.23
2017-11-23T10:54:40.907Z,69.66
2017-11-23T10:55:40.925Z,69.89
2017-11-23T10:56:40.942Z,69.31
2017-11-23T10:57:40.966Z,69.85
2017-11-23T10:58:40.978Z,69.70
2017-11-23T10:59:40.996Z,69.12
2017-11-23T11:00:41.014Z,69.12
2017-11-23T11:01:41.033Z,69.02
2017-11-23T11:02:41.051Z,69.60
2017-11-23T11:03:41.075Z,69.31
2017-11-23T11:04:41.091Z,69.60
2017-11-23T11:05:41.155Z,69.60
2017-11-23T11:06:41.122Z,69.47
2017-11-23T11:07:41.142Z,69.47
2017-11-23T11:08:41.160Z,69.56
2017-11-23T11:09:41.180Z,69.50
2017-11-23T11:10:41.196Z,69.21
2017-11-23T11:11:41.224Z,70.07
2017-11-23T11:12:41.230Z,69.89
2017-11-23T11:13:41.249Z,69.89
2017-11-23T11:14:41.268Z,69.50
2017-11-23T11:15:41.285Z,69.41
2017-11-23T11:16:41.303Z,69.66
2017-11-23T11:17:41.323Z,69.70
2017-11-23T11:18:41.343Z,69.76
2017-11-23T11:19:41.357Z,69.66
2017-11-23T11:20:41.376Z,70.23
2017-11-23T11:21:41.394Z,70.56
2017-11-23T11:22:41.416Z,69.79
2017-11-23T11:23:41.452Z,69.41
2017-11-23T11:24:41.447Z,69.76
2017-11-23T11:25:41.470Z,70.04
2017-11-23T11:26:41.485Z,69.76
2017-11-23T11:27:41.505Z,69.47
2017-11-23T11:28:41.519Z,70.61
2017-11-23T11:29:41.540Z,70.52
2017-11-23T11:30:41.556Z,71.09
2017-11-23T11:31:41.580Z,71.28
2017-11-23T11:32:41.591Z,71.47
2017-11-23T11:33:41.618Z,71.09
2017-11-23T11:34:41.631Z,71.22
2017-11-23T11:35:41.651Z,70.52
2017-11-23T11:36:41.671Z,71.28
2017-11-23T11:37:41.683Z,70.71
2017-11-23T11:38:41.702Z,70.56
2017-11-23T11:39:41.721Z,70.52
2017-11-23T11:40:41.740Z,70.56
2017-11-23T11:41:41.758Z,70.27
2017-11-23T11:42:41.775Z,70.46
2017-11-23T11:43:41.798Z,70.17
2017-11-23T11:44:41.818Z,69.89
2017-11-23T11:45:41.833Z,69.79
2017-11-23T11:46:41.850Z,70.17
2017-11-23T11:47:41.873Z,69.60
2017-11-23T11:48:41.884Z,69.12
2017-11-23T11:49:41.903Z,70.17
2017-11-23T11:50:41.919Z,69.70
2017-11-23T11:51:41.939Z,69.82
2017-11-23T11:52:41.957Z,69.21
2017-11-23T11:53:41.979Z,69.60
2017-11-23T11:54:41.993Z,70.27
2017-11-23T11:55:42.014Z,70.17
2017-11-23T11:56:42.031Z,69.73
2017-11-23T11:57:42.053Z,69.54
2017-11-23T11:58:42.065Z,69.92
2017-11-23T11:59:42.091Z,69.54
2017-11-23T12:00:42.108Z,69.54
2017-11-23T12:01:42.122Z,69.64
2017-11-23T12:02:42.140Z,69.19
2017-11-23T12:03:42.160Z,68.49
2017-11-23T12:04:42.181Z,68.87
2017-11-23T12:05:42.195Z,69.54
2017-11-23T12:06:42.223Z,69.25
2017-11-23T12:07:42.236Z,69.64
2017-11-23T12:08:42.249Z,69.54
2017-11-23T12:09:42.281Z,69.54
2017-11-23T12:10:42.291Z,69.70
2017-11-23T12:11:42.306Z,69.73
2017-11-23T12:12:42.325Z,70.27
2017-11-23T12:13:42.343Z,70.27
2017-11-23T12:14:42.368Z,70.21
2017-11-23T12:15:42.381Z,69.44
2017-11-23T12:16:42.401Z,69.73
2017-11-23T12:17:42.417Z,70.30
2017-11-23T12:18:42.438Z,70.59
2017-11-23T12:19:42.455Z,69.54
2017-11-23T12:20:42.471Z,69.92
2017-11-23T12:21:42.492Z,69.82
2017-11-23T12:22:42.512Z,69.64
2017-11-23T12:23:42.526Z,70.21
2017-11-23T12:24:42.547Z,69.73
2017-11-23T12:25:42.563Z,69.73
2017-11-23T12:26:42.581Z,69.44
2017-11-23T12:27:42.600Z,69.64
2017-11-23T12:28:42.617Z,69.25
2017-11-23T12:29:42.638Z,69.92
2017-11-23T12:30:42.655Z,70.50
2017-11-23T12:31:42.673Z,70.59
2017-11-23T12:32:42.692Z,70.30
2017-11-23T12:33:42.710Z,70.36
2017-11-23T12:34:42.734Z,70.78
2017-11-23T12:35:42.747Z,70.59
2017-11-23T12:36:42.768Z,70.94
2017-11-23T12:37:42.786Z,70.56
2017-11-23T12:38:42.804Z,70.40
2017-11-23T12:39:42.821Z,70.40
2017-11-23T12:40:42.837Z,70.21
2017-11-23T12:41:42.860Z,70.50
2017-11-23T12:42:42.877Z,70.59
2017-11-23T12:43:42.895Z,71.26
2017-11-23T12:44:42.915Z,70.40
2017-11-23T12:45:42.937Z,70.40
2017-11-23T12:46:42.955Z,70.30
2017-11-23T12:47:43.018Z,70.50
2017-11-23T12:48:42.985Z,70.50
2017-11-23T12:49:43.005Z,70.50
2017-11-23T12:50:43.024Z,70.50
2017-11-23T12:51:43.043Z,70.87
2017-11-23T12:52:43.059Z,70.59